Time;durP1;ratioP1;P1;durP2;ratioP2;P2;SDS_P1;SDS_P2;PMS_P1;PMS_P2;Temp;Humidity;BMP_temperature;BMP_pressure;BME280_temperature;BME280_humidity;BME280_pressure;Samples;Min_cycle;Max_cycle;Signal;HPM_P1;HPM_P2
2023/11/24 00:01:17;;;;;;;9.38;2.22;;;;;;;;;;4993123;28;20026;-68
2023/11/24 00:03:42;;;;;;;4.38;2.20;;;;;;;;;;4992829;28;20072;-69
2023/11/24 00:06:08;;;;;;;5.80;1.80;;;;;;;;;;4994133;28;20415;-68
2023/11/24 00:08:33;;;;;;;4.97;2.28;;;;;;;;;;4993523;28;20109;-68
2023/11/24 00:10:58;;;;;;;7.88;2.08;;;;;;;;;;4993522;28;20088;-68
2023/11/24 00:13:24;;;;;;;3.35;2.15;;;;;;;;;;4993330;28;20157;-68
2023/11/24 00:15:51;;;;;;;11.00;2.45;;;;;;;;;;4992360;28;20510;-68
2023/11/24 00:18:17;;;;;;;7.10;2.40;;;;;;;;;;4992438;28;20116;-68
2023/11/24 00:20:42;;;;;;;6.70;2.38;;;;;;;;;;4993195;28;20531;-68
2023/11/24 00:23:07;;;;;;;9.98;2.63;;;;;;;;;;4993824;28;20034;-68
2023/11/24 00:25:33;;;;;;;12.32;3.97;;;;;;;;;;4993569;28;20110;-68
2023/11/24 00:27:59;;;;;;;9.32;2.78;;;;;;;;;;4992919;28;20483;-68
2023/11/24 00:30:24;;;;;;;7.43;2.42;;;;;;;;;;4993356;28;20050;-68
2023/11/24 00:32:49;;;;;;;10.15;2.55;;;;;;;;;;4993355;28;20039;-68
2023/11/24 00:35:15;;;;;;;13.55;2.88;;;;;;;;;;4993101;28;20030;-68
2023/11/24 00:37:40;;;;;;;10.10;3.03;;;;;;;;;;4993414;28;20022;-68
2023/11/24 00:40:13;;;;;;;10.27;3.13;;;;;;;;;;4992588;28;20444;-68
2023/11/24 00:42:40;;;;;;;19.73;3.00;;;;;;;;;;5007755;28;20042;-68
2023/11/24 00:45:06;;;;;;;9.00;2.60;;;;;;;;;;4993202;28;20023;-68
2023/11/24 00:47:32;;;;;;;20.20;3.05;;;;;;;;;;4992999;28;20023;-68
2023/11/24 00:49:57;;;;;;;8.57;2.75;;;;;;;;;;4993289;28;20033;-68
2023/11/24 00:52:22;;;;;;;6.85;2.70;;;;;;;;;;4993274;28;20128;-68
2023/11/24 00:54:48;;;;;;;10.88;2.35;;;;;;;;;;4992872;28;20018;-68
2023/11/24 00:57:13;;;;;;;8.63;3.78;;;;;;;;;;4996837;28;20078;-68
2023/11/24 00:59:39;;;;;;;9.73;3.30;;;;;;;;;;4996687;28;20030;-68
2023/11/24 01:02:04;;;;;;;11.60;3.47;;;;;;;;;;4996945;28;20696;-68
2023/11/24 01:04:29;;;;;;;15.02;3.35;;;;;;;;;;4996618;28;20050;-68
2023/11/24 01:06:55;;;;;;;11.07;3.85;;;;;;;;;;4995452;28;20027;-68
2023/11/24 01:09:20;;;;;;;7.38;2.05;;;;;;;;;;4997138;28;20034;-68
2023/11/24 01:11:45;;;;;;;10.88;2.72;;;;;;;;;;4996817;28;20022;-68
2023/11/24 01:14:10;;;;;;;9.52;2.88;;;;;;;;;;4995938;28;20026;-68
2023/11/24 01:16:36;;;;;;;12.23;2.17;;;;;;;;;;4996392;28;20395;-68
2023/11/24 01:19:01;;;;;;;11.02;2.67;;;;;;;;;;4996698;28;20026;-68
2023/11/24 01:21:26;;;;;;;13.13;3.53;;;;;;;;;;4995311;28;20030;-68
2023/11/24 01:23:52;;;;;;;21.25;3.67;;;;;;;;;;4996766;28;20117;-68
2023/11/24 01:26:17;;;;;;;16.40;3.65;;;;;;;;;;4995483;28;20479;-68
2023/11/24 01:28:43;;;;;;;11.95;4.43;;;;;;;;;;4995972;28;20039;-68
2023/11/24 01:31:09;;;;;;;17.35;3.08;;;;;;;;;;4995615;28;20101;-68
2023/11/24 01:33:34;;;;;;;11.30;3.05;;;;;;;;;;4996167;28;20072;-68
2023/11/24 01:36:00;;;;;;;12.55;2.72;;;;;;;;;;4992687;28;20448;-68
2023/11/24 01:38:26;;;;;;;7.72;3.28;;;;;;;;;;4996299;28;20042;-68
2023/11/24 01:40:51;;;;;;;16.83;3.90;;;;;;;;;;4995999;28;20030;-68
2023/11/24 01:43:17;;;;;;;11.05;3.17;;;;;;;;;;4995713;28;20026;-68
2023/11/24 01:45:44;;;;;;;16.35;2.83;;;;;;;;;;4996190;28;20109;-68
2023/11/24 01:48:09;;;;;;;10.02;3.60;;;;;;;;;;4996310;28;20034;-68
2023/11/24 01:50:36;;;;;;;8.30;3.05;;;;;;;;;;4995555;28;20045;-68
2023/11/24 01:53:01;;;;;;;24.00;2.70;;;;;;;;;;4995917;28;20372;-68
2023/11/24 01:55:27;;;;;;;16.15;3.72;;;;;;;;;;4995219;28;20109;-68
2023/11/24 01:57:52;;;;;;;13.05;4.47;;;;;;;;;;4995096;28;20022;-68
2023/11/24 02:00:18;;;;;;;14.80;2.70;;;;;;;;;;4995911;28;20030;-68
2023/11/24 02:02:44;;;;;;;6.63;2.13;;;;;;;;;;4992825;28;20034;-68
2023/11/24 02:05:10;;;;;;;12.07;3.10;;;;;;;;;;4995682;28;20513;-68
2023/11/24 02:07:36;;;;;;;10.45;2.38;;;;;;;;;;4993522;28;20022;-68
2023/11/24 02:10:02;;;;;;;11.95;3.03;;;;;;;;;;4994798;28;20460;-68
2023/11/24 02:12:27;;;;;;;8.25;2.50;;;;;;;;;;4994356;28;20076;-68
2023/11/24 02:14:53;;;;;;;8.48;2.20;;;;;;;;;;4994117;28;20029;-68
2023/11/24 02:17:18;;;;;;;5.90;2.47;;;;;;;;;;4986580;28;20078;-68
2023/11/24 02:19:44;;;;;;;12.18;3.17;;;;;;;;;;4974975;28;20116;-68
2023/11/24 02:22:09;;;;;;;15.27;3.05;;;;;;;;;;4986593;28;20384;-68
2023/11/24 02:24:35;;;;;;;8.77;2.72;;;;;;;;;;4995591;28;20050;-68
2023/11/24 02:27:01;;;;;;;12.50;2.67;;;;;;;;;;4995189;28;20065;-68
2023/11/24 02:29:26;;;;;;;12.15;2.47;;;;;;;;;;4995310;28;20113;-68
2023/11/24 02:31:52;;;;;;;9.98;2.05;;;;;;;;;;4995232;28;20069;-68
2023/11/24 02:34:18;;;;;;;10.27;2.38;;;;;;;;;;4995210;28;20077;-68
2023/11/24 02:36:44;;;;;;;7.90;2.08;;;;;;;;;;4993797;28;20033;-69
2023/11/24 02:39:09;;;;;;;5.32;1.95;;;;;;;;;;4995316;28;20062;-68
2023/11/24 02:41:34;;;;;;;5.13;2.30;;;;;;;;;;4994950;28;20096;-68
2023/11/24 02:44:00;;;;;;;7.15;2.65;;;;;;;;;;5009880;28;20030;-68
2023/11/24 02:46:25;;;;;;;13.32;2.45;;;;;;;;;;5009597;28;20026;-68
2023/11/24 02:48:50;;;;;;;10.82;3.70;;;;;;;;;;4990635;28;20074;-68
2023/11/24 02:51:18;;;;;;;14.55;4.82;;;;;;;;;;4975108;28;20536;-68
2023/11/24 02:53:44;;;;;;;5.30;2.38;;;;;;;;;;4974409;28;20051;-68
2023/11/24 02:56:10;;;;;;;10.85;2.95;;;;;;;;;;4975544;28;20027;-68
2023/11/24 02:58:36;;;;;;;17.58;3.53;;;;;;;;;;4975070;28;20049;-68
2023/11/24 03:01:02;;;;;;;14.18;3.38;;;;;;;;;;4975337;28;20019;-68
2023/11/24 03:03:27;;;;;;;8.00;3.78;;;;;;;;;;4975593;28;20029;-68
2023/11/24 03:05:53;;;;;;;10.40;3.00;;;;;;;;;;4990237;28;20190;-68
2023/11/24 03:08:21;;;;;;;16.48;3.50;;;;;;;;;;4975510;28;20037;-68
2023/11/24 03:10:47;;;;;;;10.13;2.40;;;;;;;;;;4974963;28;20118;-68
2023/11/24 03:13:13;;;;;;;11.23;2.83;;;;;;;;;;4975091;28;20494;-68
2023/11/24 03:15:38;;;;;;;7.43;1.67;;;;;;;;;;4975662;28;20455;-68
2023/11/24 03:18:03;;;;;;;16.67;4.68;;;;;;;;;;4975137;28;20030;-68
2023/11/24 03:20:29;;;;;;;10.60;3.13;;;;;;;;;;4990017;28;20035;-68
2023/11/24 03:22:55;;;;;;;18.77;3.25;;;;;;;;;;4974881;28;20023;-68
2023/11/24 03:25:20;;;;;;;7.20;2.30;;;;;;;;;;4975425;28;20483;-68
2023/11/24 03:27:45;;;;;;;15.18;3.17;;;;;;;;;;4975015;28;20151;-68
2023/11/24 03:30:11;;;;;;;8.02;3.08;;;;;;;;;;4974783;28;20058;-68
2023/11/24 03:32:36;;;;;;;4.85;1.73;;;;;;;;;;4975319;28;20383;-68
2023/11/24 03:35:02;;;;;;;10.50;3.58;;;;;;;;;;4975070;28;20101;-68
2023/11/24 03:37:27;;;;;;;6.55;3.17;;;;;;;;;;4989591;28;20031;-68
2023/11/24 03:39:53;;;;;;;8.30;2.28;;;;;;;;;;4974819;28;20110;-68
2023/11/24 03:42:19;;;;;;;7.82;2.20;;;;;;;;;;4974624;28;20424;-68
2023/11/24 03:44:44;;;;;;;4.53;1.95;;;;;;;;;;4973255;28;20081;-68
2023/11/24 03:47:09;;;;;;;7.28;2.20;;;;;;;;;;4989893;28;20073;-68
2023/11/24 03:49:35;;;;;;;14.75;2.70;;;;;;;;;;4975157;28;20038;-68
2023/11/24 03:52:00;;;;;;;9.20;2.22;;;;;;;;;;4974517;28;20503;-68
2023/11/24 03:54:25;;;;;;;8.27;2.50;;;;;;;;;;4975481;28;20037;-68
2023/11/24 03:56:51;;;;;;;16.05;2.95;;;;;;;;;;4974086;28;20034;-68
2023/11/24 03:59:16;;;;;;;18.85;3.20;;;;;;;;;;4974951;28;20108;-68
2023/11/24 04:01:41;;;;;;;5.75;2.15;;;;;;;;;;4974816;28;20532;-68
2023/11/24 04:04:07;;;;;;;8.18;2.53;;;;;;;;;;4989863;28;20030;-68
2023/11/24 04:06:32;;;;;;;9.38;2.90;;;;;;;;;;4974045;28;20113;-68
2023/11/24 04:08:58;;;;;;;8.85;3.08;;;;;;;;;;4974664;28;20022;-68
2023/11/24 04:11:23;;;;;;;6.82;2.47;;;;;;;;;;4989767;28;20029;-68
2023/11/24 04:13:48;;;;;;;10.48;2.95;;;;;;;;;;4974498;28;20022;-68
2023/11/24 04:16:14;;;;;;;14.95;2.97;;;;;;;;;;4974671;28;20074;-68
2023/11/24 04:18:40;;;;;;;10.85;2.85;;;;;;;;;;4974487;28;20034;-68
2023/11/24 04:21:06;;;;;;;7.03;1.65;;;;;;;;;;4973807;28;20392;-68
2023/11/24 04:23:31;;;;;;;7.57;3.10;;;;;;;;;;4978146;28;20026;-68
2023/11/24 04:25:56;;;;;;;18.65;4.30;;;;;;;;;;4993347;28;20050;-68
2023/11/24 04:28:22;;;;;;;12.32;3.97;;;;;;;;;;4993418;28;20035;-68
2023/11/24 04:30:47;;;;;;;7.75;3.45;;;;;;;;;;4995263;28;20018;-68
2023/11/24 04:33:12;;;;;;;8.85;3.30;;;;;;;;;;4997200;28;20030;-68
2023/11/24 04:35:38;;;;;;;13.73;3.60;;;;;;;;;;4997746;28;20373;-68
2023/11/24 04:38:03;;;;;;;24.55;10.25;;;;;;;;;;4997085;28;20487;-68
2023/11/24 04:40:28;;;;;;;11.00;3.33;;;;;;;;;;4997450;28;20027;-68
2023/11/24 04:42:54;;;;;;;5.70;2.20;;;;;;;;;;4997504;28;20034;-68
2023/11/24 04:45:19;;;;;;;13.95;4.95;;;;;;;;;;4996727;28;20026;-68
2023/11/24 04:47:44;;;;;;;9.43;4.13;;;;;;;;;;4997646;28;20030;-68
2023/11/24 04:50:10;;;;;;;12.55;4.32;;;;;;;;;;4997738;28;20069;-68
2023/11/24 04:52:35;;;;;;;14.82;3.05;;;;;;;;;;4997068;28;20539;-68
2023/11/24 04:55:01;;;;;;;10.32;3.92;;;;;;;;;;4997115;28;20022;-68
2023/11/24 04:57:26;;;;;;;17.48;3.78;;;;;;;;;;4995713;28;20027;-68
2023/11/24 04:59:51;;;;;;;21.30;8.20;;;;;;;;;;4997404;28;20026;-68
2023/11/24 05:02:17;;;;;;;11.27;3.50;;;;;;;;;;4997844;28;20022;-68
2023/11/24 05:04:42;;;;;;;13.55;5.82;;;;;;;;;;4996945;28;20475;-68
2023/11/24 05:07:07;;;;;;;12.75;4.05;;;;;;;;;;4997266;28;20026;-68
2023/11/24 05:09:33;;;;;;;21.35;5.75;;;;;;;;;;4997373;28;20029;-68
2023/11/24 05:11:59;;;;;;;7.78;3.03;;;;;;;;;;4996994;28;20014;-68
2023/11/24 05:14:24;;;;;;;26.40;6.15;;;;;;;;;;4996574;28;20022;-68
2023/11/24 05:16:49;;;;;;;16.30;4.13;;;;;;;;;;4996674;28;20030;-68
2023/11/24 05:19:15;;;;;;;13.73;6.10;;;;;;;;;;4996966;28;20041;-68
2023/11/24 05:21:40;;;;;;;9.57;4.75;;;;;;;;;;4996429;28;20022;-68
2023/11/24 05:24:06;;;;;;;9.98;3.30;;;;;;;;;;4997058;28;20022;-68
2023/11/24 05:26:32;;;;;;;7.38;3.00;;;;;;;;;;4995907;28;20030;-68
2023/11/24 05:28:58;;;;;;;9.43;3.40;;;;;;;;;;4996658;28;20026;-68
2023/11/24 05:31:23;;;;;;;21.10;5.57;;;;;;;;;;4996254;28;20497;-68
2023/11/24 05:33:48;;;;;;;9.38;3.13;;;;;;;;;;4996642;28;20463;-68
2023/11/24 05:36:14;;;;;;;37.38;10.80;;;;;;;;;;4996436;28;20037;-68
2023/11/24 05:38:39;;;;;;;19.20;7.28;;;;;;;;;;4996024;28;20113;-68
2023/11/24 05:41:05;;;;;;;37.78;12.48;;;;;;;;;;5017115;23;20073;-66
2023/11/24 05:43:31;;;;;;;13.18;3.92;;;;;;;;;;5027515;28;20048;-66
2023/11/24 05:45:56;;;;;;;5.82;3.05;;;;;;;;;;4997058;28;20399;-66
2023/11/24 05:48:21;;;;;;;19.38;7.53;;;;;;;;;;4997127;28;20030;-66
2023/11/24 05:50:47;;;;;;;16.08;7.50;;;;;;;;;;4995949;28;20021;-66
2023/11/24 05:53:12;;;;;;;11.35;4.45;;;;;;;;;;4996774;28;20033;-66
2023/11/24 05:55:37;;;;;;;16.45;6.85;;;;;;;;;;4996512;28;20022;-66
2023/11/24 05:58:06;;;;;;;6.90;3.40;;;;;;;;;;4996807;28;20109;-66
2023/11/24 06:00:32;;;;;;;7.60;3.42;;;;;;;;;;4996342;28;20029;-66
2023/11/24 06:02:57;;;;;;;4.45;2.45;;;;;;;;;;5010941;28;20028;-66
2023/11/24 06:05:22;;;;;;;8.50;3.20;;;;;;;;;;4995886;28;20109;-66
2023/11/24 06:07:48;;;;;;;6.13;2.05;;;;;;;;;;4996266;28;20022;-66
2023/11/24 06:10:13;;;;;;;3.47;2.28;;;;;;;;;;4996312;28;20026;-66
2023/11/24 06:12:39;;;;;;;6.68;2.40;;;;;;;;;;4995725;28;20030;-66
2023/11/24 06:15:04;;;;;;;7.13;2.17;;;;;;;;;;4996171;28;20034;-66
2023/11/24 06:17:30;;;;;;;6.15;2.25;;;;;;;;;;4996444;28;20034;-66
2023/11/24 06:19:55;;;;;;;15.68;3.35;;;;;;;;;;5011201;28;20030;-66
2023/11/24 06:22:20;;;;;;;1.20;1.02;;;;;;;;;;4996071;28;20403;-66
2023/11/24 06:24:46;;;;;;;9.63;2.40;;;;;;;;;;4995698;28;20117;-66
2023/11/24 06:27:11;;;;;;;8.65;3.13;;;;;;;;;;4995885;28;20026;-66
2023/11/24 06:29:36;;;;;;;8.43;2.58;;;;;;;;;;4995912;28;20030;-66
2023/11/24 06:32:02;;;;;;;11.63;3.35;;;;;;;;;;4995733;28;20026;-66
2023/11/24 06:34:27;;;;;;;7.57;2.47;;;;;;;;;;4996503;28;20177;-66
2023/11/24 06:36:52;;;;;;;16.85;2.60;;;;;;;;;;4995177;28;20018;-66
2023/11/24 06:39:19;;;;;;;12.43;3.22;;;;;;;;;;4995805;28;20105;-66
2023/11/24 06:41:48;;;;;;;12.18;3.25;;;;;;;;;;4995568;28;20034;-66
2023/11/24 06:44:13;;;;;;;8.52;3.00;;;;;;;;;;4996019;28;20062;-66
2023/11/24 06:46:39;;;;;;;18.73;4.97;;;;;;;;;;4995262;28;20065;-66
2023/11/24 06:49:06;;;;;;;8.85;3.10;;;;;;;;;;4995715;28;20080;-66
2023/11/24 06:51:32;;;;;;;9.93;3.08;;;;;;;;;;4995520;28;20026;-66
2023/11/24 06:53:57;;;;;;;9.23;3.03;;;;;;;;;;4995164;28;20040;-66
2023/11/24 06:56:25;;;;;;;5.40;2.53;;;;;;;;;;4995188;28;20056;-66
2023/11/24 06:58:54;;;;;;;8.52;2.22;;;;;;;;;;4995496;28;20150;-66
2023/11/24 07:01:32;;;;;;;9.40;2.72;;;;;;;;;;4994890;28;20030;-66
2023/11/24 07:04:00;;;;;;;12.93;2.33;;;;;;;;;;4995583;28;21547;-66
2023/11/24 07:06:26;;;;;;;9.00;3.05;;;;;;;;;;4995336;28;20085;-66
2023/11/24 07:08:52;;;;;;;5.93;2.60;;;;;;;;;;5010285;28;20026;-66
2023/11/24 07:11:19;;;;;;;8.30;2.72;;;;;;;;;;4994299;28;20109;-66
2023/11/24 07:13:44;;;;;;;13.15;2.78;;;;;;;;;;4994468;28;20109;-66
2023/11/24 07:16:09;;;;;;;8.30;3.08;;;;;;;;;;4993794;28;20154;-66
2023/11/24 07:18:34;;;;;;;10.45;1.92;;;;;;;;;;4994825;28;20399;-66
2023/11/24 07:21:00;;;;;;;8.13;3.00;;;;;;;;;;4994195;28;20026;-66
2023/11/24 07:23:25;;;;;;;13.60;2.00;;;;;;;;;;4994592;28;20030;-66
2023/11/24 07:25:50;;;;;;;16.48;2.72;;;;;;;;;;4994243;28;20470;-66
2023/11/24 07:28:17;;;;;;;9.13;2.55;;;;;;;;;;4994738;28;20037;-66
2023/11/24 07:30:42;;;;;;;9.00;2.53;;;;;;;;;;4994786;28;20027;-66
2023/11/24 07:33:07;;;;;;;4.47;1.98;;;;;;;;;;4994482;28;20022;-66
2023/11/24 07:35:33;;;;;;;10.88;3.65;;;;;;;;;;4993842;28;20030;-66
2023/11/24 07:37:58;;;;;;;19.50;3.20;;;;;;;;;;5006124;28;20022;-66
2023/11/24 07:40:25;;;;;;;11.38;3.00;;;;;;;;;;5012689;28;20482;-66
2023/11/24 07:42:50;;;;;;;14.38;4.38;;;;;;;;;;5010598;28;20105;-66
2023/11/24 07:45:16;;;;;;;14.55;4.05;;;;;;;;;;4994131;28;20018;-66
2023/11/24 07:47:41;;;;;;;18.02;3.67;;;;;;;;;;4993928;28;20041;-66
2023/11/24 07:50:07;;;;;;;21.05;3.55;;;;;;;;;;4993855;28;20109;-66
2023/11/24 07:52:32;;;;;;;9.73;2.65;;;;;;;;;;4993668;28;20041;-66
2023/11/24 07:54:58;;;;;;;11.52;2.42;;;;;;;;;;4993755;28;20030;-66
2023/11/24 07:57:26;;;;;;;10.73;3.17;;;;;;;;;;4993498;28;20038;-66
2023/11/24 07:59:52;;;;;;;9.70;3.03;;;;;;;;;;4994201;28;20041;-66
2023/11/24 08:02:17;;;;;;;14.13;3.08;;;;;;;;;;4993415;28;20027;-66
2023/11/24 08:04:43;;;;;;;10.43;4.07;;;;;;;;;;4992835;28;20144;-66
2023/11/24 08:07:09;;;;;;;5.90;1.80;;;;;;;;;;4993041;28;20026;-66
2023/11/24 08:09:34;;;;;;;6.40;2.03;;;;;;;;;;5009190;28;20033;-66
2023/11/24 08:11:59;;;;;;;8.48;2.15;;;;;;;;;;4993418;28;20022;-66
2023/11/24 08:14:25;;;;;;;4.63;2.22;;;;;;;;;;4993658;28;20018;-66
2023/11/24 08:16:51;;;;;;;4.97;2.50;;;;;;;;;;4993527;28;20034;-66
2023/11/24 08:19:21;;;;;;;9.75;2.40;;;;;;;;;;4990159;28;68552;-66
2023/11/24 08:21:47;;;;;;;7.05;2.42;;;;;;;;;;5012836;28;20026;-66
2023/11/24 08:24:12;;;;;;;7.00;2.38;;;;;;;;;;5013236;28;20455;-66
2023/11/24 08:26:38;;;;;;;5.47;2.50;;;;;;;;;;5008168;28;20063;-66
2023/11/24 08:29:03;;;;;;;12.82;2.53;;;;;;;;;;5012247;28;20493;-66
2023/11/24 08:31:29;;;;;;;5.80;1.33;;;;;;;;;;5012063;28;20456;-66
2023/11/24 08:33:54;;;;;;;5.65;2.55;;;;;;;;;;5013118;28;20029;-66
2023/11/24 08:36:19;;;;;;;5.95;1.77;;;;;;;;;;5012984;28;20022;-66
2023/11/24 08:38:44;;;;;;;5.22;1.55;;;;;;;;;;4996783;28;20052;-66
2023/11/24 08:43:49;;;;;;;5.85;1.35;;;;;;;;;;5108723;27;72835;-66
2023/11/24 08:46:14;;;;;;;5.35;1.20;;;;;;;;;;5108801;28;20426;-66
2023/11/24 08:48:40;;;;;;;6.38;2.10;;;;;;;;;;5110691;28;20020;-66
2023/11/24 08:51:08;;;;;;;6.13;1.65;;;;;;;;;;5110516;28;20099;-66
2023/11/24 08:53:34;;;;;;;1.92;1.30;;;;;;;;;;5109689;28;20023;-66
2023/11/24 08:56:00;;;;;;;5.55;1.70;;;;;;;;;;5103910;28;20373;-66
2023/11/24 08:58:26;;;;;;;11.27;4.32;;;;;;;;;;5088683;28;20039;-66
2023/11/24 09:00:53;;;;;;;2.72;1.73;;;;;;;;;;5090162;28;20051;-66
2023/11/24 09:03:18;;;;;;;2.95;2.05;;;;;;;;;;5110095;28;20032;-66
2023/11/24 09:05:45;;;;;;;9.25;2.80;;;;;;;;;;5108297;28;20019;-66
2023/11/24 09:08:10;;;;;;;2.88;1.60;;;;;;;;;;5107925;28;20035;-66
2023/11/24 09:10:36;;;;;;;5.57;1.90;;;;;;;;;;5109956;28;20024;-66
2023/11/24 09:13:01;;;;;;;3.80;2.05;;;;;;;;;;5108260;28;20089;-67
2023/11/24 09:15:26;;;;;;;7.60;2.95;;;;;;;;;;5092591;28;20036;-66
2023/11/24 09:17:53;;;;;;;7.88;2.42;;;;;;;;;;5089392;28;20032;-66
2023/11/24 09:20:18;;;;;;;4.57;1.60;;;;;;;;;;5102839;28;20016;-66
2023/11/24 09:22:44;;;;;;;2.47;1.15;;;;;;;;;;5108632;28;20024;-66
2023/11/24 09:25:11;;;;;;;4.78;2.40;;;;;;;;;;5107696;28;20031;-66
2023/11/24 09:27:37;;;;;;;7.53;2.70;;;;;;;;;;5092701;28;20028;-66
2023/11/24 09:30:04;;;;;;;7.22;3.55;;;;;;;;;;5089718;28;20088;-66
2023/11/24 09:32:31;;;;;;;4.50;1.95;;;;;;;;;;5106811;28;20495;-66
2023/11/24 09:34:56;;;;;;;9.32;1.88;;;;;;;;;;5110145;28;20039;-66
2023/11/24 09:37:22;;;;;;;5.53;1.88;;;;;;;;;;5109366;28;20153;-66
2023/11/24 09:39:47;;;;;;;5.15;1.83;;;;;;;;;;5109905;28;20031;-66
2023/11/24 09:42:13;;;;;;;2.60;1.38;;;;;;;;;;5108863;28;20031;-66
2023/11/24 09:44:40;;;;;;;2.58;1.55;;;;;;;;;;5109606;28;20038;-66
2023/11/24 09:47:06;;;;;;;1.05;0.95;;;;;;;;;;5108465;28;20012;-66
2023/11/24 09:49:32;;;;;;;2.38;1.15;;;;;;;;;;5109693;28;20162;-66
2023/11/24 09:51:59;;;;;;;0.98;0.88;;;;;;;;;;5107963;28;20055;-66
2023/11/24 09:54:26;;;;;;;6.90;1.70;;;;;;;;;;5080476;28;20021;-66
2023/11/24 09:56:52;;;;;;;5.70;1.15;;;;;;;;;;5073792;28;20063;-67
2023/11/24 09:59:18;;;;;;;3.78;1.75;;;;;;;;;;5089733;28;20468;-66
2023/11/24 10:01:47;;;;;;;3.65;2.42;;;;;;;;;;5094748;28;20022;-66
2023/11/24 10:04:12;;;;;;;7.90;4.00;;;;;;;;;;5091061;28;20035;-66
2023/11/24 10:06:39;;;;;;;8.35;1.80;;;;;;;;;;5093688;28;20034;-66
2023/11/24 10:09:10;;;;;;;6.68;3.00;;;;;;;;;;5095353;28;20027;-68
2023/11/24 10:11:38;;;;;;;11.60;3.50;;;;;;;;;;5098113;28;20034;-66
2023/11/24 10:14:04;;;;;;;10.45;4.53;;;;;;;;;;5089703;28;20562;-66
2023/11/24 10:16:30;;;;;;;13.23;2.80;;;;;;;;;;5080726;28;20059;-66
2023/11/24 10:18:56;;;;;;;13.00;3.60;;;;;;;;;;5093884;28;20088;-67
2023/11/24 10:21:21;;;;;;;17.45;4.38;;;;;;;;;;5094055;28;20473;-67
2023/11/24 10:23:48;;;;;;;11.82;2.30;;;;;;;;;;5093191;28;20031;-66
2023/11/24 10:26:18;;;;;;;14.02;3.08;;;;;;;;;;5092708;28;20499;-67
2023/11/24 10:28:45;;;;;;;6.30;2.55;;;;;;;;;;5111052;28;20404;-66
2023/11/24 10:31:13;;;;;;;6.32;3.05;;;;;;;;;;5092232;28;20036;-66
2023/11/24 10:33:43;;;;;;;13.48;2.47;;;;;;;;;;5074062;28;20113;-66
2023/11/24 10:36:08;;;;;;;16.50;6.03;;;;;;;;;;5085458;28;20073;-66
2023/11/24 10:38:38;;;;;;;7.63;2.75;;;;;;;;;;5094418;28;20027;-66
2023/11/24 10:41:04;;;;;;;11.15;2.53;;;;;;;;;;5089469;28;20028;-67
2023/11/24 10:43:34;;;;;;;7.70;1.92;;;;;;;;;;5074400;28;20416;-66
2023/11/24 10:46:02;;;;;;;2.28;1.33;;;;;;;;;;5082909;28;20055;-67
2023/11/24 10:48:48;;;;;;;1.67;1.42;;;;;;;;;;5094890;28;20020;-66
2023/11/24 10:51:24;;;;;;;5.18;1.30;;;;;;;;;;5094219;28;20020;-67
2023/11/24 10:53:52;;;;;;;9.52;1.48;;;;;;;;;;5094877;28;20468;-67
2023/11/24 10:56:17;;;;;;;8.77;1.63;;;;;;;;;;5094716;28;20024;-66
2023/11/24 10:58:51;;;;;;;5.30;1.95;;;;;;;;;;5092697;28;20020;-66
2023/11/24 11:01:22;;;;;;;5.57;1.50;;;;;;;;;;5094175;28;20028;-67
2023/11/24 11:03:49;;;;;;;5.65;2.22;;;;;;;;;;5094400;28;20032;-66
2023/11/24 11:06:38;;;;;;;1.33;1.17;;;;;;;;;;5108157;28;20035;-67
2023/11/24 11:11:53;;;;;;;7.18;1.05;;;;;;;;;;5059374;28;20385;-67
2023/11/24 11:14:19;;;;;;;14.25;3.83;;;;;;;;;;5074326;28;20381;-67
2023/11/24 11:16:45;;;;;;;12.32;5.68;;;;;;;;;;5075671;28;20115;-67
2023/11/24 11:19:30;;;;;;;4.40;1.38;;;;;;;;;;5073793;28;20031;-67
2023/11/24 11:21:59;;;;;;;4.97;1.83;;;;;;;;;;5085955;28;20074;-67
2023/11/24 11:24:25;;;;;;;3.90;1.85;;;;;;;;;;5093186;28;20032;-67
2023/11/24 11:26:51;;;;;;;7.82;2.10;;;;;;;;;;5094563;28;20115;-67
2023/11/24 11:29:23;;;;;;;7.43;2.35;;;;;;;;;;5092958;28;20063;-67
2023/11/24 11:31:51;;;;;;;;;;;;;;;;;;5092793;28;20110;-67
2023/11/24 11:34:18;;;;;;;11.32;3.10;;;;;;;;;;5094550;28;19987;-67
2023/11/24 11:37:22;;;;;;;7.18;2.33;;;;;;;;;;5092644;28;20020;-67
2023/11/24 11:39:57;;;;;;;8.98;2.20;;;;;;;;;;5091424;28;20055;-67
2023/11/24 11:42:31;;;;;;;5.50;1.83;;;;;;;;;;5085442;22;20033;-67
2023/11/24 11:45:09;;;;;;;7.85;3.75;;;;;;;;;;5026592;28;20129;-68
2023/11/24 11:47:39;;;;;;;14.13;2.60;;;;;;;;;;5006543;28;20021;-68
2023/11/24 11:50:07;;;;;;;5.43;2.60;;;;;;;;;;5015005;28;20033;-67
2023/11/24 11:52:35;;;;;;;4.40;2.47;;;;;;;;;;5033028;28;20086;-68
2023/11/24 11:55:00;;;;;;;5.88;1.70;;;;;;;;;;5032991;28;20021;-67
2023/11/24 11:57:27;;;;;;;2.58;1.52;;;;;;;;;;5033155;28;20429;-68
2023/11/24 11:59:52;;;;;;;4.50;2.25;;;;;;;;;;5027887;28;20026;-67
2023/11/24 12:02:21;;;;;;;11.65;3.40;;;;;;;;;;5012508;28;20029;-67
2023/11/24 12:04:47;;;;;;;8.15;2.10;;;;;;;;;;5013811;28;20030;-67
2023/11/24 12:07:13;;;;;;;3.92;1.75;;;;;;;;;;4994476;28;20029;-68
2023/11/24 12:09:39;;;;;;;7.57;1.70;;;;;;;;;;4993259;28;20117;-68
2023/11/24 12:12:05;;;;;;;2.42;1.38;;;;;;;;;;5013814;28;20100;-68
2023/11/24 12:14:31;;;;;;;2.60;1.42;;;;;;;;;;5013197;28;20021;-67
2023/11/24 12:16:56;;;;;;;2.78;1.65;;;;;;;;;;5015814;28;20052;-67
2023/11/24 12:19:22;;;;;;;2.28;1.40;;;;;;;;;;5014655;28;20108;-68
2023/11/24 12:21:48;;;;;;;11.55;2.53;;;;;;;;;;5014809;28;20494;-68
2023/11/24 12:24:14;;;;;;;10.95;4.47;;;;;;;;;;5014659;28;20382;-67
2023/11/24 12:26:40;;;;;;;3.38;2.15;;;;;;;;;;5014763;28;20100;-68
2023/11/24 12:29:11;;;;;;;8.15;3.35;;;;;;;;;;5012666;28;20026;-68
2023/11/24 12:31:38;;;;;;;;;;;;;;;;;;5012682;28;20029;-67
2023/11/24 12:34:20;;;;;;;4.80;2.05;;;;;;;;;;5011684;28;19952;-67
2023/11/24 12:36:46;;;;;;;12.68;5.40;;;;;;;;;;4995399;28;20030;-68
2023/11/24 12:39:13;;;;;;;13.98;4.65;;;;;;;;;;5008301;28;20025;-68
2023/11/24 12:41:43;;;;;;;31.58;6.72;;;;;;;;;;5030501;28;20061;-70
2023/11/24 12:44:09;;;;;;;15.32;5.85;;;;;;;;;;5013485;28;20025;-69
2023/11/24 12:46:34;;;;;;;22.48;8.50;;;;;;;;;;5012838;28;20022;-69
2023/11/24 12:49:00;;;;;;;27.98;11.25;;;;;;;;;;5012499;28;20029;-69
2023/11/24 12:51:26;;;;;;;13.80;2.40;;;;;;;;;;5019844;28;20060;-69
2023/11/24 12:53:51;;;;;;;15.43;2.97;;;;;;;;;;5031982;28;20482;-70
2023/11/24 12:56:16;;;;;;;8.13;3.30;;;;;;;;;;5014619;28;20021;-69
2023/11/24 12:58:43;;;;;;;5.03;2.03;;;;;;;;;;5013254;28;20021;-69
2023/11/24 13:01:09;;;;;;;10.93;2.88;;;;;;;;;;4994891;28;20030;-69
2023/11/24 13:03:34;;;;;;;4.47;2.38;;;;;;;;;;5012274;28;20030;-69
2023/11/24 13:06:00;;;;;;;9.00;2.75;;;;;;;;;;5012805;28;20513;-69
2023/11/24 13:08:25;;;;;;;8.05;1.67;;;;;;;;;;5011819;28;20026;-69
2023/11/24 13:10:53;;;;;;;3.45;1.98;;;;;;;;;;5011549;28;20138;-69
2023/11/24 13:13:20;;;;;;;15.40;3.00;;;;;;;;;;5012486;28;20061;-69
2023/11/24 13:15:46;;;;;;;4.85;1.80;;;;;;;;;;4995102;28;20057;-69
2023/11/24 13:18:11;;;;;;;7.00;1.92;;;;;;;;;;4994817;28;20030;-69
2023/11/24 13:20:38;;;;;;;7.55;2.35;;;;;;;;;;5012504;28;20041;-69
2023/11/24 13:23:04;;;;;;;7.10;1.33;;;;;;;;;;5016551;28;20630;-69
2023/11/24 13:25:30;;;;;;;10.23;3.88;;;;;;;;;;5032793;28;20037;-69
2023/11/24 13:27:56;;;;;;;9.43;2.22;;;;;;;;;;5006492;28;20030;-69
2023/11/24 13:30:22;;;;;;;3.85;1.75;;;;;;;;;;5015475;28;20037;-67
2023/11/24 13:32:48;;;;;;;4.70;3.22;;;;;;;;;;5015666;28;20030;-67
2023/11/24 13:35:15;;;;;;;11.60;2.55;;;;;;;;;;5015393;28;20064;-67
2023/11/24 13:37:42;;;;;;;11.30;3.03;;;;;;;;;;5015512;28;20029;-67
2023/11/24 13:40:12;;;;;;;9.60;3.95;;;;;;;;;;5001477;28;20108;-67
2023/11/24 13:42:38;;;;;;;7.80;3.42;;;;;;;;;;4998058;28;20454;-66
2023/11/24 13:45:06;;;;;;;9.75;2.13;;;;;;;;;;5015639;28;20034;-66
2023/11/24 13:47:31;;;;;;;5.78;2.25;;;;;;;;;;5016243;28;20032;-66
2023/11/24 13:49:58;;;;;;;18.65;3.67;;;;;;;;;;5015717;28;20109;-66
2023/11/24 13:52:23;;;;;;;6.93;2.47;;;;;;;;;;5014235;28;20022;-66
2023/11/24 13:54:50;;;;;;;8.80;3.45;;;;;;;;;;5015474;28;20040;-66
2023/11/24 13:57:16;;;;;;;11.15;3.00;;;;;;;;;;5015216;28;20021;-66
2023/11/24 13:59:41;;;;;;;12.68;2.78;;;;;;;;;;4981567;28;20084;-66
2023/11/24 14:02:07;;;;;;;25.08;5.80;;;;;;;;;;4997149;28;20515;-66
2023/11/24 14:04:34;;;;;;;35.83;7.80;;;;;;;;;;4998060;28;20395;-66
2023/11/24 14:07:00;;;;;;;11.32;2.72;;;;;;;;;;5015306;28;20026;-66
2023/11/24 14:09:31;;;;;;;9.75;3.60;;;;;;;;;;5013464;28;20033;-66
2023/11/24 14:12:00;;;;;;;11.30;3.33;;;;;;;;;;5015414;28;20037;-66
2023/11/24 14:14:27;;;;;;;9.38;2.65;;;;;;;;;;5014901;28;20034;-66
2023/11/24 14:16:52;;;;;;;10.20;2.58;;;;;;;;;;4997372;28;20084;-66
2023/11/24 14:19:18;;;;;;;15.88;4.95;;;;;;;;;;5015350;28;20022;-66
2023/11/24 14:21:43;;;;;;;4.70;2.53;;;;;;;;;;5014695;28;20029;-66
2023/11/24 14:24:13;;;;;;;10.05;4.05;;;;;;;;;;4997597;28;20072;-68
2023/11/24 14:26:44;;;;;;;9.23;2.15;;;;;;;;;;4997698;28;20030;-69
2023/11/24 14:29:10;;;;;;;8.02;2.42;;;;;;;;;;5015158;28;20025;-68
2023/11/24 14:31:35;;;;;;;7.10;2.75;;;;;;;;;;5015281;28;20512;-69
2023/11/24 14:34:01;;;;;;;14.48;2.97;;;;;;;;;;5015197;28;20036;-69
2023/11/24 14:36:27;;;;;;;10.68;2.72;;;;;;;;;;5017204;28;20025;-68
2023/11/24 14:38:53;;;;;;;14.27;4.18;;;;;;;;;;5035069;28;20037;-69